Time;durP1;ratioP1;P1;durP2;ratioP2;P2;SDS_P1;SDS_P2;PMS_P1;PMS_P2;Temp;Humidity;BMP_temperature;BMP_pressure;BME280_temperature;BME280_humidity;BME280_pressure;Samples;Min_cycle;Max_cycle;Signal;HPM_P1;HPM_P2
2023/07/02 00:01:01;;;;;;;25.23;8.10;;;15.60;99.90;;;;;;4958831;28;20057;-76
2023/07/02 00:03:47;;;;;;;27.90;9.55;;;15.60;99.90;;;;;;4972626;28;20082;-76
2023/07/02 00:06:40;;;;;;;26.88;9.00;;;15.60;99.90;;;;;;4989649;28;20078;-77
2023/07/02 00:09:26;;;;;;;27.88;8.43;;;15.50;99.90;;;;;;4973001;28;20145;-76
2023/07/02 00:12:13;;;;;;;27.40;8.52;;;15.50;99.90;;;;;;4990147;28;20062;-77
2023/07/02 00:15:00;;;;;;;23.67;7.80;;;15.50;99.90;;;;;;4990218;28;20495;-76
2023/07/02 00:17:46;;;;;;;22.90;7.68;;;15.50;99.90;;;;;;4989923;28;20522;-75
2023/07/02 00:20:37;;;;;;;29.63;9.20;;;15.50;99.90;;;;;;4972721;28;20054;-76
2023/07/02 00:23:23;;;;;;;28.98;8.70;;;15.40;99.90;;;;;;4988926;28;20054;-77
2023/07/02 00:26:09;;;;;;;29.88;8.05;;;15.30;99.90;;;;;;4989526;28;20057;-78
2023/07/02 00:28:58;;;;;;;27.63;8.77;;;15.30;99.90;;;;;;4988938;28;20046;-79
2023/07/02 00:31:44;;;;;;;29.35;9.77;;;15.30;99.90;;;;;;4989126;28;20116;-75
2023/07/02 00:34:30;;;;;;;24.48;7.45;;;15.20;99.90;;;;;;4961925;28;20101;-77
2023/07/02 00:37:17;;;;;;;28.40;8.45;;;15.20;99.90;;;;;;4990973;28;20132;-76
2023/07/02 00:40:03;;;;;;;31.30;9.40;;;15.10;99.90;;;;;;4988999;28;20050;-77
2023/07/02 00:42:49;;;;;;;32.30;9.85;;;15.10;99.90;;;;;;4990154;28;20043;-80
2023/07/02 00:45:36;;;;;;;26.70;9.07;;;15.10;99.90;;;;;;4990446;28;20137;-77
2023/07/02 00:48:22;;;;;;;27.73;9.15;;;15.10;99.90;;;;;;4972539;28;20069;-77
2023/07/02 00:51:09;;;;;;;30.48;8.73;;;15.00;99.90;;;;;;4988319;28;20046;-77
2023/07/02 00:53:57;;;;;;;37.03;10.27;;;15.00;99.90;;;;;;4988574;28;20146;-77
2023/07/02 00:56:45;;;;;;;29.27;8.65;;;15.00;99.90;;;;;;4988369;28;20050;-77
2023/07/02 00:59:35;;;;;;;25.70;8.40;;;15.00;99.90;;;;;;4988654;28;20096;-76
2023/07/02 01:02:25;;;;;;;29.05;9.07;;;15.00;99.90;;;;;;4972140;28;20069;-77
2023/07/02 01:05:15;;;;;;;26.90;8.88;;;14.90;99.90;;;;;;4975305;28;20152;-76
2023/07/02 01:08:05;;;;;;;31.00;10.10;;;14.90;99.90;;;;;;4993112;28;20094;-76
2023/07/02 01:10:52;;;;;;;34.03;10.15;;;14.90;99.90;;;;;;4976598;28;20120;-78
2023/07/02 01:13:38;;;;;;;19.17;7.57;;;14.90;99.90;;;;;;4987111;28;20054;-76
2023/07/02 01:16:24;;;;;;;35.58;10.35;;;14.80;99.90;;;;;;4993547;28;20046;-80
2023/07/02 01:19:19;;;;;;;34.42;10.52;;;14.90;99.90;;;;;;4976139;28;20051;-80
2023/07/02 01:22:05;;;;;;;34.80;10.70;;;14.80;99.90;;;;;;4978761;28;20050;-80
2023/07/02 01:24:51;;;;;;;32.28;10.45;;;14.80;99.90;;;;;;4994036;28;20413;-79
2023/07/02 01:27:37;;;;;;;33.17;9.40;;;14.80;99.90;;;;;;4975407;28;20058;-79
2023/07/02 01:30:23;;;;;;;32.17;9.05;;;14.90;99.90;;;;;;4992000;28;20145;-79
2023/07/02 01:33:09;;;;;;;30.50;8.88;;;14.90;99.90;;;;;;4991946;28;20050;-76
2023/07/02 01:35:56;;;;;;;45.15;9.15;;;14.90;99.90;;;;;;4974884;28;20061;-78
2023/07/02 01:38:42;;;;;;;37.45;9.65;;;14.90;99.90;;;;;;4991756;28;20094;-79
2023/07/02 01:41:28;;;;;;;30.05;9.93;;;14.90;99.90;;;;;;4993363;28;20086;-76
2023/07/02 01:44:14;;;;;;;32.28;9.52;;;14.90;99.90;;;;;;4974110;28;20046;-76
2023/07/02 01:47:00;;;;;;;37.63;10.23;;;14.90;99.90;;;;;;4992589;28;20612;-76
2023/07/02 01:49:46;;;;;;;38.00;10.48;;;14.90;99.90;;;;;;4993142;28;20525;-75
2023/07/02 01:52:33;;;;;;;32.65;8.73;;;15.00;99.90;;;;;;4992106;28;20133;-75
2023/07/02 01:55:19;;;;;;;32.55;9.98;;;15.00;99.90;;;;;;4991422;28;20054;-77
2023/07/02 01:58:06;;;;;;;31.60;9.60;;;15.00;99.90;;;;;;4994069;28;20042;-75
2023/07/02 02:00:53;;;;;;;42.90;10.63;;;14.90;99.90;;;;;;4991538;28;20066;-76
2023/07/02 02:03:40;;;;;;;40.88;10.63;;;15.00;99.90;;;;;;4975655;28;20046;-75
2023/07/02 02:06:26;;;;;;;32.42;9.18;;;15.00;99.90;;;;;;4991681;28;20054;-77
2023/07/02 02:09:13;;;;;;;27.70;8.50;;;14.90;99.90;;;;;;4965261;28;20054;-75
2023/07/02 02:11:59;;;;;;;36.13;10.18;;;14.90;99.90;;;;;;4992175;28;20116;-75
2023/07/02 02:14:45;;;;;;;28.23;8.80;;;14.90;99.90;;;;;;4975830;28;20050;-75
2023/07/02 02:17:31;;;;;;;32.67;9.55;;;14.90;99.90;;;;;;4991638;28;20050;-77
2023/07/02 02:20:17;;;;;;;29.52;9.27;;;14.90;99.90;;;;;;4974297;28;20467;-77
2023/07/02 02:23:03;;;;;;;28.55;8.75;;;14.90;99.90;;;;;;4975874;28;20050;-79
2023/07/02 02:25:49;;;;;;;32.35;9.13;;;14.90;99.90;;;;;;4993215;28;20105;-77
2023/07/02 02:28:36;;;;;;;34.70;9.80;;;14.90;99.90;;;;;;4992652;28;20046;-75
2023/07/02 02:31:22;;;;;;;29.02;8.43;;;15.00;99.90;;;;;;4992064;28;20137;-76
2023/07/02 02:34:08;;;;;;;30.10;8.60;;;15.00;99.90;;;;;;4990888;28;20495;-76
2023/07/02 02:36:55;;;;;;;24.25;9.07;;;15.00;99.90;;;;;;4990703;28;20047;-76
2023/07/02 02:39:41;;;;;;;31.17;9.23;;;15.00;99.90;;;;;;4990771;28;20051;-76
2023/07/02 02:42:27;;;;;;;38.55;8.82;;;15.00;99.90;;;;;;4974427;28;20082;-76
2023/07/02 02:45:13;;;;;;;26.67;8.65;;;15.00;99.90;;;;;;4990229;28;20050;-76
2023/07/02 02:47:59;;;;;;;26.05;9.75;;;15.10;99.90;;;;;;4992304;28;20066;-76
2023/07/02 02:50:47;;;;;;;25.67;9.75;;;15.10;99.90;;;;;;4974070;28;20490;-77
2023/07/02 02:53:33;;;;;;;32.72;8.27;;;15.10;99.90;;;;;;4974426;28;20774;-75
2023/07/02 02:56:19;;;;;;;31.63;9.10;;;15.10;99.90;;;;;;4991067;28;20046;-75
2023/07/02 02:59:05;;;;;;;33.22;8.23;;;15.10;99.90;;;;;;4990172;28;20518;-78
2023/07/02 03:01:51;;;;;;;28.13;8.70;;;15.10;99.90;;;;;;4989940;28;20601;-75
2023/07/02 03:04:41;;;;;;;25.52;9.23;;;15.10;99.90;;;;;;4990028;28;20494;-78
2023/07/02 03:07:27;;;;;;;26.75;8.85;;;15.10;99.90;;;;;;4990077;28;20065;-76
2023/07/02 03:10:13;;;;;;;31.23;8.80;;;15.10;99.90;;;;;;4973660;28;20463;-77
2023/07/02 03:12:59;;;;;;;25.50;8.38;;;15.10;99.90;;;;;;4960123;28;20525;-76
2023/07/02 03:15:45;;;;;;;25.02;8.68;;;15.10;99.90;;;;;;4972506;28;20054;-77
2023/07/02 03:18:32;;;;;;;29.08;8.93;;;15.10;99.90;;;;;;4973097;28;20054;-76
2023/07/02 03:21:18;;;;;;;30.90;8.57;;;15.20;99.90;;;;;;4991594;28;20141;-75
2023/07/02 03:24:04;;;;;;;26.92;8.35;;;15.20;99.90;;;;;;4991715;28;20047;-75
2023/07/02 03:26:50;;;;;;;27.45;7.78;;;15.10;99.90;;;;;;4974531;28;20109;-78
2023/07/02 03:29:38;;;;;;;25.05;8.02;;;15.10;99.90;;;;;;4973701;28;20058;-79
2023/07/02 03:32:24;;;;;;;29.70;9.50;;;15.10;99.90;;;;;;4959043;28;20065;-76
2023/07/02 03:35:10;;;;;;;26.67;7.10;;;15.10;99.90;;;;;;4990906;28;20064;-79
2023/07/02 03:37:57;;;;;;;30.00;10.35;;;15.10;99.90;;;;;;4991142;28;20042;-76
2023/07/02 03:40:43;;;;;;;23.13;6.95;;;15.10;99.90;;;;;;4990414;28;20038;-75
2023/07/02 03:43:29;;;;;;;27.60;8.77;;;15.00;99.90;;;;;;4990481;28;20051;-78
2023/07/02 03:46:15;;;;;;;30.95;8.45;;;15.00;99.90;;;;;;4990802;28;20054;-76
2023/07/02 03:49:03;;;;;;;31.13;8.43;;;15.10;99.90;;;;;;4973516;28;20098;-79
2023/07/02 03:51:49;;;;;;;25.08;7.97;;;15.10;99.90;;;;;;4993543;28;20054;-76
2023/07/02 03:54:35;;;;;;;23.38;8.25;;;15.10;99.90;;;;;;4991140;28;20046;-75
2023/07/02 03:57:21;;;;;;;24.58;7.55;;;15.10;99.90;;;;;;4991890;28;20065;-76
2023/07/02 04:00:10;;;;;;;29.85;8.55;;;15.20;99.90;;;;;;4990143;28;20403;-75
2023/07/02 04:02:56;;;;;;;25.77;6.80;;;15.20;99.90;;;;;;4978189;28;20050;-77
2023/07/02 04:05:43;;;;;;;22.63;7.15;;;15.20;99.90;;;;;;4972573;28;20066;-76
2023/07/02 04:08:29;;;;;;;18.95;6.15;;;15.30;99.90;;;;;;4972620;28;20046;-75
2023/07/02 04:11:15;;;;;;;17.70;6.13;;;15.20;99.90;;;;;;4972158;28;20053;-79
2023/07/02 04:14:02;;;;;;;18.95;6.55;;;15.20;99.90;;;;;;4971934;28;20156;-76
2023/07/02 04:16:48;;;;;;;27.35;7.13;;;15.20;99.90;;;;;;4973239;28;20418;-76
2023/07/02 04:19:34;;;;;;;22.92;7.35;;;15.10;99.90;;;;;;4990272;28;20510;-77
2023/07/02 04:22:20;;;;;;;23.35;6.65;;;15.10;99.90;;;;;;4959262;28;20050;-77
2023/07/02 04:25:07;;;;;;;22.80;6.40;;;15.10;99.90;;;;;;4989339;28;20077;-78
2023/07/02 04:27:56;;;;;;;23.30;7.50;;;15.10;99.90;;;;;;4972750;28;20062;-78
2023/07/02 04:30:42;;;;;;;19.95;5.72;;;15.10;99.90;;;;;;4991671;28;20055;-74
2023/07/02 04:33:35;;;;;;;23.50;7.72;;;15.10;99.90;;;;;;4988702;28;20056;-77
2023/07/02 04:36:21;;;;;;;24.20;7.15;;;15.10;99.90;;;;;;4974330;28;20605;-78
2023/07/02 04:39:09;;;;;;;22.25;6.43;;;15.10;99.90;;;;;;4995067;28;20490;-79
2023/07/02 04:41:55;;;;;;;22.15;6.20;;;15.10;99.90;;;;;;4992812;28;20046;-76
2023/07/02 04:44:43;;;;;;;26.30;6.63;;;15.10;99.90;;;;;;4993065;28;20403;-79
2023/07/02 04:47:29;;;;;;;20.90;6.65;;;15.10;99.90;;;;;;4993168;28;20494;-80
2023/07/02 04:50:19;;;;;;;20.05;5.20;;;15.20;99.90;;;;;;4994259;28;20046;-77
2023/07/02 04:53:05;;;;;;;16.10;5.53;;;15.30;99.90;;;;;;4993170;28;20499;-78
2023/07/02 04:55:51;;;;;;;18.80;5.75;;;15.30;99.90;;;;;;4980253;28;20138;-78
2023/07/02 04:58:37;;;;;;;17.58;5.15;;;15.30;99.90;;;;;;4993461;28;20141;-77
2023/07/02 05:01:23;;;;;;;22.40;6.55;;;15.30;99.90;;;;;;4976001;28;20062;-80
2023/07/02 05:04:13;;;;;;;22.02;6.38;;;15.30;99.90;;;;;;4993066;28;20487;-77
2023/07/02 05:07:03;;;;;;;23.02;5.75;;;15.30;99.90;;;;;;4993046;28;20525;-76
2023/07/02 05:09:51;;;;;;;21.23;5.18;;;15.30;99.90;;;;;;4987550;28;20442;-77
2023/07/02 05:12:37;;;;;;;17.20;6.03;;;15.30;99.90;;;;;;4992795;28;20050;-76
2023/07/02 05:15:24;;;;;;;21.38;5.90;;;15.30;99.90;;;;;;4976157;28;20065;-78
2023/07/02 05:18:11;;;;;;;16.52;5.43;;;15.40;99.90;;;;;;4992127;28;20398;-77
2023/07/02 05:20:57;;;;;;;31.77;7.50;;;15.40;99.90;;;;;;4993991;28;20047;-76
2023/07/02 05:23:43;;;;;;;16.58;5.45;;;15.50;99.90;;;;;;4993460;28;20084;-77
2023/07/02 05:26:29;;;;;;;17.83;4.43;;;15.50;99.90;;;;;;4992605;28;20805;-76
2023/07/02 05:29:16;;;;;;;16.55;5.15;;;15.60;99.90;;;;;;4994344;28;20054;-80
2023/07/02 05:32:02;;;;;;;21.52;5.40;;;15.60;99.90;;;;;;4993134;28;20054;-76
2023/07/02 05:34:49;;;;;;;23.33;6.50;;;15.60;99.90;;;;;;4992690;28;20156;-77
2023/07/02 05:37:35;;;;;;;20.77;5.00;;;15.80;99.90;;;;;;4992742;28;20156;-79
2023/07/02 05:40:21;;;;;;;17.42;5.10;;;15.90;99.90;;;;;;4992601;28;20042;-78
2023/07/02 05:43:07;;;;;;;17.05;4.75;;;15.90;99.90;;;;;;4992571;28;20121;-76
2023/07/02 05:52:07;;;;;;;13.80;5.07;;;15.80;99.90;;;;;;4992288;28;20065;-79
2023/07/02 05:54:53;;;;;;;17.75;5.13;;;15.90;99.90;;;;;;4993014;28;20054;-77
2023/07/02 05:57:39;;;;;;;19.15;5.25;;;15.90;99.90;;;;;;4991649;28;20509;-75
2023/07/02 06:00:25;;;;;;;14.02;3.97;;;16.00;99.90;;;;;;4990789;28;20062;-76
2023/07/02 06:03:18;;;;;;;15.35;5.05;;;16.20;99.90;;;;;;4992359;28;20054;-77
2023/07/02 06:06:05;;;;;;;18.30;5.78;;;16.30;99.90;;;;;;4991631;28;20085;-76
2023/07/02 06:08:51;;;;;;;20.65;4.65;;;16.50;99.90;;;;;;4990981;28;20413;-77
2023/07/02 06:11:39;;;;;;;17.15;4.55;;;16.50;99.90;;;;;;4978544;28;20046;-76
2023/07/02 06:14:26;;;;;;;15.00;3.88;;;16.60;99.90;;;;;;4992086;28;20046;-77
2023/07/02 06:17:13;;;;;;;20.92;5.13;;;16.70;99.90;;;;;;4992571;28;20508;-80
2023/07/02 06:19:59;;;;;;;15.05;4.88;;;16.80;99.90;;;;;;4992096;28;20050;-77
2023/07/02 06:22:45;;;;;;;22.42;5.47;;;16.90;99.90;;;;;;4992502;28;20050;-78
2023/07/02 06:25:31;;;;;;;15.68;4.93;;;16.80;99.90;;;;;;4991948;28;20453;-77
2023/07/02 06:28:17;;;;;;;16.10;4.93;;;16.70;99.90;;;;;;4992096;28;20050;-78
2023/07/02 06:31:03;;;;;;;21.15;4.75;;;16.80;99.90;;;;;;4992669;28;20494;-75
2023/07/02 06:33:53;;;;;;;17.35;5.22;;;16.70;99.90;;;;;;4991765;28;20069;-79
2023/07/02 06:36:39;;;;;;;17.20;4.35;;;16.60;99.90;;;;;;4993530;28;20053;-78
2023/07/02 06:39:25;;;;;;;17.48;5.57;;;16.50;99.90;;;;;;4991171;28;20049;-77
2023/07/02 06:42:11;;;;;;;13.43;4.28;;;16.70;99.90;;;;;;4978459;28;20050;-77
2023/07/02 06:44:57;;;;;;;23.42;4.45;;;16.90;99.90;;;;;;4976695;28;20050;-80
2023/07/02 06:47:43;;;;;;;17.17;4.60;;;17.10;99.90;;;;;;4990905;28;20054;-77
2023/07/02 06:50:30;;;;;;;17.65;4.57;;;17.30;99.90;;;;;;4991199;28;20117;-78
2023/07/02 06:53:16;;;;;;;18.95;4.38;;;17.20;99.90;;;;;;4992104;28;20570;-77
2023/07/02 06:56:02;;;;;;;17.13;4.50;;;17.10;99.90;;;;;;4991552;28;20050;-78
2023/07/02 06:58:48;;;;;;;15.30;4.15;;;17.30;99.90;;;;;;4992406;28;20475;-77
2023/07/02 07:01:36;;;;;;;14.68;5.20;;;17.40;99.90;;;;;;4989743;28;20132;-77
2023/07/02 07:04:22;;;;;;;15.73;3.58;;;17.50;99.90;;;;;;4991824;28;20139;-79
2023/07/02 07:07:08;;;;;;;16.52;2.97;;;17.60;99.90;;;;;;4991602;28;20058;-81
2023/07/02 07:09:55;;;;;;;14.82;4.30;;;17.70;99.90;;;;;;4990260;28;20050;-77
2023/07/02 07:12:41;;;;;;;11.15;3.45;;;17.80;99.90;;;;;;4991344;28;20054;-79
2023/07/02 07:15:27;;;;;;;17.02;3.88;;;18.00;99.90;;;;;;4990336;28;20053;-79
2023/07/02 07:18:13;;;;;;;15.95;3.90;;;18.00;99.90;;;;;;4991514;28;20137;-79
2023/07/02 07:21:00;;;;;;;15.45;3.17;;;18.10;99.90;;;;;;4991450;28;20091;-79
2023/07/02 07:23:46;;;;;;;12.00;3.30;;;18.10;99.90;;;;;;4991825;28;20046;-78
2023/07/02 07:26:32;;;;;;;19.45;3.78;;;18.10;99.90;;;;;;4990306;28;20050;-81
2023/07/02 07:29:18;;;;;;;21.88;3.72;;;18.40;99.90;;;;;;4989611;28;20056;-79
2023/07/02 07:32:05;;;;;;;11.48;3.47;;;18.40;99.90;;;;;;4990783;28;20581;-77
2023/07/02 07:34:51;;;;;;;15.55;3.45;;;18.50;99.90;;;;;;4989652;28;20054;-77
2023/07/02 07:37:38;;;;;;;9.18;2.92;;;18.60;99.90;;;;;;4991569;28;20054;-77
2023/07/02 07:40:24;;;;;;;12.57;3.38;;;18.70;99.90;;;;;;4991410;28;20058;-80
2023/07/02 07:43:10;;;;;;;13.63;3.33;;;18.80;99.90;;;;;;4991445;28;20050;-78
2023/07/02 07:45:56;;;;;;;13.90;3.63;;;18.80;99.90;;;;;;4991327;28;20061;-77
2023/07/02 07:48:43;;;;;;;15.55;3.90;;;18.90;99.90;;;;;;4975735;28;20058;-79
2023/07/02 07:51:29;;;;;;;10.15;3.67;;;19.00;99.90;;;;;;4989933;28;20511;-77
2023/07/02 07:54:15;;;;;;;13.57;3.72;;;19.20;99.90;;;;;;4991227;28;20060;-79
2023/07/02 07:57:03;;;;;;;17.67;4.65;;;19.30;99.90;;;;;;4989454;28;20054;-78
2023/07/02 07:59:49;;;;;;;14.00;3.58;;;19.50;99.90;;;;;;4990595;28;20062;-75
2023/07/02 08:02:35;;;;;;;16.73;4.40;;;19.30;99.40;;;;;;4991449;28;20050;-77
2023/07/02 08:05:22;;;;;;;19.15;3.92;;;19.40;99.80;;;;;;4990012;28;20054;-78
2023/07/02 08:08:08;;;;;;;13.38;4.13;;;19.60;99.90;;;;;;4990957;28;20050;-77
2023/07/02 08:10:55;;;;;;;15.52;3.83;;;19.60;99.90;;;;;;4988696;28;20086;-77
2023/07/02 08:13:42;;;;;;;12.00;3.13;;;19.40;99.60;;;;;;4990643;28;20141;-78
2023/07/02 08:16:28;;;;;;;18.02;4.00;;;19.00;99.80;;;;;;4990658;28;20438;-76
2023/07/02 08:19:14;;;;;;;12.27;3.58;;;18.90;99.90;;;;;;4989498;28;20115;-76
2023/07/02 08:22:00;;;;;;;19.23;4.95;;;18.90;99.90;;;;;;4988959;28;20050;-76
2023/07/02 08:24:49;;;;;;;22.40;5.35;;;18.80;99.90;;;;;;4989826;28;20060;-78
2023/07/02 08:27:35;;;;;;;20.17;5.22;;;19.00;99.90;;;;;;4990294;28;20137;-77
2023/07/02 08:30:21;;;;;;;13.65;3.65;;;18.90;99.90;;;;;;4991432;28;20046;-76
2023/07/02 08:33:11;;;;;;;13.75;3.45;;;19.20;99.90;;;;;;4989316;28;20066;-78
2023/07/02 08:35:57;;;;;;;10.23;2.80;;;19.30;99.90;;;;;;4976140;28;20108;-77
2023/07/02 08:38:49;;;;;;;12.65;3.78;;;19.50;99.50;;;;;;4976981;28;20160;-78
2023/07/02 08:41:44;;;;;;;15.45;2.78;;;19.60;99.50;;;;;;4990513;28;20049;-77
2023/07/02 08:44:30;;;;;;;13.23;2.88;;;19.60;99.10;;;;;;4990919;28;20502;-79
2023/07/02 08:47:16;;;;;;;13.30;3.10;;;19.80;99.10;;;;;;4974672;28;20448;-78
2023/07/02 08:50:04;;;;;;;9.77;2.95;;;20.00;99.20;;;;;;4990814;28;20047;-77
2023/07/02 08:52:53;;;;;;;15.20;2.75;;;20.20;99.20;;;;;;4990972;28;20137;-77
2023/07/02 08:55:40;;;;;;;11.07;3.25;;;20.30;98.10;;;;;;4991272;28;20415;-76
2023/07/02 08:58:26;;;;;;;14.93;2.97;;;20.40;97.60;;;;;;4988003;28;20090;-80
2023/07/02 09:01:14;;;;;;;11.57;3.22;;;20.40;96.80;;;;;;4988991;28;20050;-81
2023/07/02 09:04:00;;;;;;;16.27;3.33;;;20.40;97.20;;;;;;4989168;28;20055;-79
2023/07/02 09:06:47;;;;;;;17.88;4.47;;;20.60;97.60;;;;;;4987639;28;20145;-78
2023/07/02 09:09:48;;;;;;;9.23;3.05;;;20.70;97.70;;;;;;4988613;28;20050;-78
2023/07/02 09:12:35;;;;;;;15.23;4.75;;;20.80;97.30;;;;;;4988871;28;20597;-81
2023/07/02 09:15:21;;;;;;;19.45;4.93;;;20.90;97.10;;;;;;4988732;28;20085;-80
2023/07/02 09:18:16;;;;;;;15.07;3.33;;;20.90;97.50;;;;;;4989996;28;20052;-79
2023/07/02 09:21:03;;;;;;;14.20;3.78;;;20.90;96.60;;;;;;4990364;28;20042;-77
2023/07/02 09:23:49;;;;;;;13.10;3.85;;;21.10;97.10;;;;;;4989518;28;20047;-76
2023/07/02 09:26:36;;;;;;;9.90;2.47;;;21.10;96.90;;;;;;4994600;28;20112;-76
2023/07/02 09:29:24;;;;;;;17.23;3.97;;;21.00;96.40;;;;;;4993107;28;20061;-77
2023/07/02 09:32:10;;;;;;;9.63;2.88;;;21.00;96.50;;;;;;4994119;28;20050;-77
2023/07/02 09:34:58;;;;;;;15.55;3.60;;;20.60;96.80;;;;;;4992583;28;20058;-76
2023/07/02 09:37:44;;;;;;;15.40;3.97;;;20.30;97.00;;;;;;4992486;28;20389;-77
2023/07/02 09:40:31;;;;;;;10.95;2.67;;;20.50;97.00;;;;;;4992010;28;20043;-79
2023/07/02 09:43:18;;;;;;;10.63;3.13;;;20.20;96.40;;;;;;4993011;28;20068;-76
2023/07/02 09:46:06;;;;;;;11.52;2.83;;;20.30;97.00;;;;;;4993485;28;20058;-77
2023/07/02 09:48:53;;;;;;;9.85;2.67;;;20.50;96.40;;;;;;4992246;28;20498;-77
2023/07/02 09:51:41;;;;;;;10.05;3.22;;;20.40;96.30;;;;;;4992942;28;20059;-77
2023/07/02 09:54:28;;;;;;;11.65;2.70;;;20.40;96.00;;;;;;4991401;28;20050;-77
2023/07/02 09:57:15;;;;;;;8.40;2.90;;;20.60;96.00;;;;;;4992843;28;20054;-75
2023/07/02 10:00:02;;;;;;;12.10;2.78;;;20.90;96.90;;;;;;4993037;28;20090;-77
2023/07/02 10:02:52;;;;;;;7.25;2.20;;;21.10;96.50;;;;;;4993450;28;20454;-76
2023/07/02 10:05:39;;;;;;;10.65;3.00;;;21.10;93.50;;;;;;4978981;28;20055;-78
2023/07/02 10:08:30;;;;;;;10.63;2.08;;;21.20;94.60;;;;;;4991558;28;20050;-77
2023/07/02 10:11:16;;;;;;;10.13;2.35;;;21.30;93.50;;;;;;4992740;28;20104;-77
2023/07/02 10:14:02;;;;;;;12.60;2.60;;;21.40;93.60;;;;;;4992728;28;20065;-78
2023/07/02 10:16:54;;;;;;;13.00;2.85;;;21.60;94.00;;;;;;4993076;28;20050;-77
2023/07/02 10:19:53;;;;;;;10.00;2.58;;;21.40;93.10;;;;;;4991852;28;20051;-77
2023/07/02 10:22:56;;;;;;;9.30;2.20;;;21.30;93.60;;;;;;4991519;28;20558;-77
2023/07/02 10:25:42;;;;;;;8.13;2.40;;;21.40;92.80;;;;;;4991428;28;20061;-78
2023/07/02 10:28:28;;;;;;;12.48;3.85;;;21.80;93.40;;;;;;4992084;28;20141;-79
2023/07/02 10:31:21;;;;;;;15.15;3.40;;;21.70;93.40;;;;;;4993075;28;20510;-77
2023/07/02 10:34:07;;;;;;;13.88;3.40;;;22.10;94.30;;;;;;4990550;28;20109;-78
2023/07/02 10:36:54;;;;;;;17.05;3.03;;;22.30;95.00;;;;;;4992991;28;20050;-77
2023/07/02 10:39:41;;;;;;;19.05;4.35;;;22.10;95.20;;;;;;4991182;28;20054;-81
2023/07/02 10:42:27;;;;;;;11.52;3.05;;;21.90;95.20;;;;;;4990994;28;20050;-77
2023/07/02 10:45:13;;;;;;;10.80;2.58;;;22.20;94.30;;;;;;4990826;28;20697;-76
2023/07/02 10:48:02;;;;;;;13.57;2.92;;;22.10;93.40;;;;;;4991452;28;20097;-80
2023/07/02 10:50:49;;;;;;;10.68;3.42;;;22.20;93.30;;;;;;4990892;28;20054;-78
2023/07/02 10:53:35;;;;;;;11.68;2.35;;;22.30;94.20;;;;;;4990545;28;20502;-77
2023/07/02 10:56:22;;;;;;;9.38;2.47;;;22.30;93.40;;;;;;4992234;28;20081;-78
2023/07/02 10:59:08;;;;;;;11.57;2.78;;;22.30;92.60;;;;;;4991596;28;20576;-77
2023/07/02 11:01:55;;;;;;;13.20;2.63;;;22.70;93.00;;;;;;4990579;28;20074;-78
2023/07/02 11:04:41;;;;;;;6.93;2.90;;;22.50;92.50;;;;;;4991931;28;20057;-77
2023/07/02 11:07:28;;;;;;;9.32;3.10;;;22.20;92.20;;;;;;4990631;28;20054;-80
2023/07/02 11:10:18;;;;;;;10.30;2.42;;;22.60;92.50;;;;;;4990384;28;20069;-78
2023/07/02 11:13:12;;;;;;;6.82;1.92;;;22.10;91.60;;;;;;4991231;28;20064;-77
2023/07/02 11:15:58;;;;;;;8.52;2.88;;;21.90;90.90;;;;;;4991021;28;20557;-78
2023/07/02 11:18:44;;;;;;;10.27;2.17;;;21.90;92.10;;;;;;4990058;28;20469;-77
2023/07/02 11:21:31;;;;;;;10.50;2.35;;;22.00;92.00;;;;;;4990448;28;20050;-78
2023/07/02 11:24:27;;;;;;;8.98;2.42;;;22.00;92.00;;;;;;4989367;28;20050;-77
2023/07/02 11:27:22;;;;;;;12.93;2.03;;;22.40;91.90;;;;;;4989979;28;20058;-76
2023/07/02 11:30:08;;;;;;;12.18;2.80;;;21.90;91.00;;;;;;4991764;28;20521;-79
2023/07/02 11:32:55;;;;;;;9.02;2.45;;;22.10;92.00;;;;;;4989728;28;20514;-77
2023/07/02 11:35:43;;;;;;;10.30;2.60;;;21.80;92.30;;;;;;4989713;28;20491;-79
2023/07/02 11:38:29;;;;;;;11.88;2.30;;;21.60;92.80;;;;;;4991250;28;20333;-80
2023/07/02 11:41:15;;;;;;;8.70;2.00;;;22.10;92.90;;;;;;4991010;28;20069;-80
2023/07/02 11:44:01;;;;;;;10.50;2.92;;;22.30;93.20;;;;;;4976266;28;20089;-78
2023/07/02 11:46:47;;;;;;;14.57;3.08;;;22.60;93.00;;;;;;4990268;28;20058;-79
2023/07/02 11:49:34;;;;;;;10.15;2.42;;;22.30;93.00;;;;;;4990010;28;20046;-76
2023/07/02 11:52:20;;;;;;;11.98;3.08;;;22.30;91.40;;;;;;4991839;28;20154;-77
2023/07/02 11:55:06;;;;;;;10.05;2.20;;;22.30;91.40;;;;;;4991488;28;20197;-77
2023/07/02 11:57:53;;;;;;;11.25;2.80;;;22.10;92.20;;;;;;4989243;28;20050;-77
2023/07/02 12:00:39;;;;;;;11.80;2.63;;;22.10;91.40;;;;;;4990210;28;20096;-78
2023/07/02 12:03:25;;;;;;;13.98;2.95;;;22.20;91.50;;;;;;4991535;28;20058;-79
2023/07/02 12:06:11;;;;;;;11.55;3.33;;;22.40;91.90;;;;;;4989980;28;20065;-77
2023/07/02 12:08:57;;;;;;;11.02;2.97;;;22.50;91.80;;;;;;4990758;28;20042;-77
2023/07/02 12:11:45;;;;;;;14.65;3.22;;;22.50;91.20;;;;;;4990998;28;20053;-80
2023/07/02 12:14:31;;;;;;;10.70;2.90;;;22.20;91.90;;;;;;4989121;28;20062;-79
2023/07/02 12:17:17;;;;;;;12.63;3.35;;;22.30;91.70;;;;;;4975780;28;20517;-77
2023/07/02 12:20:04;;;;;;;11.27;3.00;;;22.20;91.40;;;;;;4989446;28;20142;-77
2023/07/02 12:22:50;;;;;;;8.93;2.83;;;22.50;91.50;;;;;;4988586;28;20065;-77
2023/07/02 12:25:36;;;;;;;13.48;3.55;;;22.30;92.00;;;;;;4975465;28;20541;-78
2023/07/02 12:28:22;;;;;;;8.48;3.65;;;21.90;91.30;;;;;;4989304;28;20054;-77
2023/07/02 12:31:08;;;;;;;12.20;3.60;;;21.80;91.80;;;;;;4990431;28;20158;-80
2023/07/02 12:33:54;;;;;;;12.23;2.97;;;21.80;92.30;;;;;;4975111;28;20392;-80
2023/07/02 12:36:41;;;;;;;8.82;2.95;;;21.80;92.10;;;;;;4990591;28;20057;-80
2023/07/02 12:39:27;;;;;;;9.63;3.67;;;22.40;92.10;;;;;;4975154;28;20050;-80
2023/07/02 12:42:13;;;;;;;9.95;4.00;;;22.60;91.70;;;;;;4989604;28;20092;-76
2023/07/02 12:44:59;;;;;;;9.27;3.20;;;22.80;91.40;;;;;;4990246;28;20093;-77
2023/07/02 12:47:45;;;;;;;10.20;3.38;;;22.80;91.10;;;;;;4988891;28;20050;-76
2023/07/02 12:50:31;;;;;;;14.50;3.67;;;22.80;90.80;;;;;;4989034;28;20061;-78
2023/07/02 12:53:17;;;;;;;13.75;4.50;;;22.80;90.60;;;;;;4988573;28;20513;-80
2023/07/02 12:56:04;;;;;;;9.70;3.55;;;22.70;90.90;;;;;;4990956;28;20046;-78
2023/07/02 12:58:51;;;;;;;11.20;3.55;;;22.20;91.50;;;;;;4990844;28;20057;-80
2023/07/02 13:01:37;;;;;;;15.90;4.82;;;22.20;91.70;;;;;;4994288;28;20065;-79
2023/07/02 13:04:23;;;;;;;9.65;3.30;;;22.60;91.80;;;;;;4992930;28;20145;-79
2023/07/02 13:07:09;;;;;;;11.73;4.10;;;22.50;90.50;;;;;;4992701;28;20108;-80
2023/07/02 13:09:55;;;;;;;11.52;3.08;;;22.90;90.10;;;;;;4994399;28;20056;-80
2023/07/02 13:12:41;;;;;;;12.02;2.80;;;23.20;90.30;;;;;;4993719;28;20053;-77
2023/07/02 13:15:28;;;;;;;7.75;3.25;;;23.20;89.20;;;;;;4993748;28;20054;-79
2023/07/02 13:18:14;;;;;;;7.72;2.60;;;23.30;87.80;;;;;;4994087;28;20405;-79
2023/07/02 13:21:00;;;;;;;11.73;3.08;;;23.50;86.50;;;;;;4992700;28;20141;-78
2023/07/02 13:23:46;;;;;;;9.38;3.33;;;22.90;87.80;;;;;;4978941;28;20365;-79
2023/07/02 13:26:32;;;;;;;17.80;4.90;;;22.70;89.90;;;;;;4992388;28;20038;-76
2023/07/02 13:29:18;;;;;;;11.30;3.30;;;22.10;90.60;;;;;;4993144;28;20499;-79
2023/07/02 13:32:05;;;;;;;9.80;3.00;;;22.70;91.30;;;;;;4993292;28;20058;-79
2023/07/02 13:34:51;;;;;;;19.25;3.33;;;22.60;89.60;;;;;;4992029;28;20569;-77
2023/07/02 13:37:37;;;;;;;9.00;2.80;;;23.20;89.30;;;;;;4978586;28;20051;-79
2023/07/02 13:40:23;;;;;;;8.93;2.78;;;23.30;87.60;;;;;;4992389;28;20089;-78
2023/07/02 13:43:10;;;;;;;11.85;2.90;;;23.70;86.40;;;;;;4993362;28;20059;-78
2023/07/02 13:45:56;;;;;;;14.70;3.33;;;23.70;84.30;;;;;;4992460;28;20054;-76
2023/07/02 13:48:42;;;;;;;8.30;3.03;;;24.30;86.90;;;;;;4991681;28;20061;-78
2023/07/02 13:51:29;;;;;;;9.93;3.83;;;24.40;85.60;;;;;;4993480;28;20461;-78
2023/07/02 13:54:15;;;;;;;9.32;3.15;;;24.50;84.30;;;;;;4990581;28;20081;-77
2023/07/02 13:57:01;;;;;;;13.85;4.50;;;24.20;85.10;;;;;;4992010;28;20057;-76
2023/07/02 13:59:47;;;;;;;13.57;3.95;;;24.20;86.20;;;;;;4991782;28;20054;-77
2023/07/02 14:02:34;;;;;;;10.52;3.10;;;23.60;87.20;;;;;;4992921;28;20061;-77
2023/07/02 14:05:20;;;;;;;11.52;3.33;;;23.20;86.80;;;;;;4992518;28;20090;-75
2023/07/02 14:08:06;;;;;;;17.05;3.67;;;22.70;87.70;;;;;;4993490;28;20050;-76
2023/07/02 14:10:53;;;;;;;14.02;3.50;;;22.50;90.30;;;;;;4991429;28;20126;-77
2023/07/02 14:13:39;;;;;;;11.55;3.50;;;21.90;90.20;;;;;;4991806;28;20402;-76
2023/07/02 14:16:25;;;;;;;10.95;3.58;;;21.60;90.70;;;;;;4992938;28;20056;-78
2023/07/02 14:19:12;;;;;;;17.17;4.40;;;21.20;91.40;;;;;;4992008;28;20121;-77
2023/07/02 14:21:58;;;;;;;12.80;4.13;;;21.30;92.10;;;;;;4991169;28;20058;-78
2023/07/02 14:24:44;;;;;;;16.83;4.68;;;21.80;92.70;;;;;;4992499;28;20121;-80